Time;durP1;ratioP1;P1;durP2;ratioP2;P2;SDS_P1;SDS_P2;PMS_P1;PMS_P2;Temp;Humidity;BMP_temperature;BMP_pressure;BME280_temperature;BME280_humidity;BME280_pressure;Samples;Min_cycle;Max_cycle;Signal;HPM_P1;HPM_P2
2022/08/14 00:01:45;;;;;;;9.52;4.97;;;;;;;22.87;61.98;100794.13;4996704;28;20064;-74
2022/08/14 00:04:22;;;;;;;8.43;4.72;;;;;;;22.84;62.25;100794.47;5011337;28;20575;-74
2022/08/14 00:07:05;;;;;;;6.30;5.15;;;;;;;22.80;62.96;100785.91;4998737;28;20496;-74
2022/08/14 00:09:34;;;;;;;6.40;4.40;;;;;;;22.77;62.77;100796.13;4990805;28;20148;-74
2022/08/14 00:12:22;;;;;;;6.38;5.47;;;;;;;22.73;63.41;100793.75;4992079;28;20064;-74
2022/08/14 00:14:52;;;;;;;4.80;4.32;;;;;;;22.72;63.10;100793.94;4996971;28;20045;-74
2022/08/14 00:17:22;;;;;;;6.18;5.03;;;;;;;22.69;62.94;100792.41;5012978;28;20049;-74
2022/08/14 00:19:49;;;;;;;8.07;5.65;;;;;;;22.65;63.65;100788.41;5004879;28;20487;-74
2022/08/14 00:22:18;;;;;;;9.55;5.00;;;;;;;22.63;64.27;100793.09;5004898;28;20044;-74
2022/08/14 00:25:06;;;;;;;6.93;4.93;;;;;;;22.59;63.84;100791.72;5024022;28;20095;-74
2022/08/14 00:27:34;;;;;;;6.50;5.22;;;;;;;22.58;63.77;100797.28;5010917;28;20042;-74
2022/08/14 00:30:07;;;;;;;8.40;5.50;;;;;;;22.55;64.09;100787.69;5006476;28;20057;-74
2022/08/14 00:32:37;;;;;;;6.30;4.93;;;;;;;22.53;64.38;100784.34;4982398;28;20046;-74
2022/08/14 00:35:24;;;;;;;11.82;5.65;;;;;;;22.48;65.35;100790.22;5004992;28;20534;-74
2022/08/14 00:38:12;;;;;;;9.18;5.63;;;;;;;22.45;64.66;100793.22;4998328;28;20064;-74
2022/08/14 00:40:39;;;;;;;5.60;4.90;;;;;;;22.44;64.74;100779.97;4996262;28;20037;-74
2022/08/14 00:43:12;;;;;;;5.55;5.05;;;;;;;22.42;65.23;100780.13;4996692;28;20052;-74
2022/08/14 00:45:41;;;;;;;7.35;5.43;;;;;;;22.39;65.27;100783.13;5003941;28;20056;-74
2022/08/14 00:48:17;;;;;;;7.68;5.40;;;;;;;22.35;66.06;100776.41;4992373;28;20045;-74
2022/08/14 00:51:04;;;;;;;7.68;4.63;;;;;;;22.30;65.66;100777.91;5011339;28;20049;-74
2022/08/14 00:53:31;;;;;;;9.10;5.18;;;;;;;22.27;65.67;100775.56;4994861;28;20071;-73
2022/08/14 00:55:58;;;;;;;11.55;5.70;;;;;;;22.23;65.87;100772.34;5025103;28;20042;-74
2022/08/14 00:58:32;;;;;;;7.63;5.30;;;;;;;22.20;66.32;100768.16;4985143;28;20053;-74
2022/08/14 01:01:06;;;;;;;6.85;5.40;;;;;;;22.17;66.11;100765.81;5028208;28;20058;-74
2022/08/14 01:03:36;;;;;;;7.47;5.18;;;;;;;22.14;66.66;100766.13;4995543;28;20133;-74
2022/08/14 01:06:08;;;;;;;8.80;5.82;;;;;;;22.09;67.07;100763.06;5013661;28;20038;-74
2022/08/14 01:08:37;;;;;;;9.27;5.20;;;;;;;22.05;66.87;100759.00;5001597;28;20080;-74
2022/08/14 01:11:23;;;;;;;7.20;5.47;;;;;;;22.03;67.10;100758.34;4989882;28;20052;-74
2022/08/14 01:13:51;;;;;;;8.68;5.88;;;;;;;22.02;66.88;100759.34;4996630;28;20045;-74
2022/08/14 01:16:29;;;;;;;11.93;6.35;;;;;;;22.00;66.83;100764.84;5011162;28;20049;-74
2022/08/14 01:21:46;;;;;;;9.05;5.28;;;;;;;21.98;66.67;100756.16;5027025;28;20062;-74
2022/08/14 01:24:23;;;;;;;6.10;5.60;;;;;;;21.97;67.41;100758.97;4985877;28;20046;-75
2022/08/14 01:27:03;;;;;;;6.40;5.80;;;;;;;21.97;67.46;100761.66;4996986;28;20133;-75
2022/08/14 01:29:36;;;;;;;8.23;5.65;;;;;;;21.97;67.36;100761.66;5003647;28;20049;-74
2022/08/14 01:32:23;;;;;;;8.57;6.60;;;;;;;21.97;67.03;100758.97;5020871;28;20056;-74
2022/08/14 01:34:53;;;;;;;7.30;5.75;;;;;;;21.96;67.58;100758.13;5014955;28;20557;-74
2022/08/14 01:37:45;;;;;;;6.97;5.50;;;;;;;21.97;67.51;100761.66;4985396;28;20125;-75
2022/08/14 01:40:22;;;;;;;7.57;5.78;;;;;;;21.97;68.01;100756.28;5007546;28;20072;-74
2022/08/14 01:42:59;;;;;;;8.40;5.80;;;;;;;21.97;68.30;100757.16;4996016;28;20049;-74
2022/08/14 01:45:28;;;;;;;6.70;5.65;;;;;;;21.99;68.29;100754.31;5018969;28;20056;-74
2022/08/14 01:48:07;;;;;;;7.38;5.82;;;;;;;21.97;68.62;100757.16;5010056;28;20053;-73
2022/08/14 01:50:41;;;;;;;8.68;6.20;;;;;;;21.98;68.68;100760.69;4995898;28;20091;-73
2022/08/14 01:53:11;;;;;;;7.28;5.78;;;;;;;21.98;68.29;100763.34;5023583;28;20053;-73
2022/08/14 01:55:38;;;;;;;8.88;5.78;;;;;;;21.98;68.21;100764.19;5017353;28;20536;-74
2022/08/14 01:58:12;;;;;;;7.78;6.13;;;;;;;22.00;67.99;100761.34;5005481;28;20053;-74
2022/08/14 02:00:53;;;;;;;8.52;6.10;;;;;;;22.01;68.14;100760.34;4998858;28;20475;-74
2022/08/14 02:03:29;;;;;;;7.88;6.85;;;;;;;22.04;67.50;100761.88;4980427;28;20044;-73
2022/08/14 02:05:58;;;;;;;8.25;5.70;;;;;;;22.04;67.32;100762.69;5011194;28;20404;-75
2022/08/14 02:08:29;;;;;;;6.45;5.85;;;;;;;22.05;67.40;100756.34;5001003;28;20393;-75
2022/08/14 02:11:21;;;;;;;5.97;5.38;;;;;;;22.06;67.31;100747.28;4983426;28;20393;-75
2022/08/14 02:13:51;;;;;;;8.43;6.03;;;;;;;22.08;67.55;100745.28;5016232;28;20064;-75
2022/08/14 02:16:24;;;;;;;9.98;6.25;;;;;;;22.09;67.78;100755.00;5012089;28;20096;-75
2022/08/14 02:18:57;;;;;;;6.82;5.43;;;;;;;22.09;67.27;100744.28;5014766;28;20057;-74
2022/08/14 02:21:26;;;;;;;10.93;5.30;;;;;;;22.10;67.75;100750.50;5025105;28;20040;-74
2022/08/14 02:23:54;;;;;;;8.18;6.30;;;;;;;22.10;68.04;100737.91;5002850;28;20049;-75
2022/08/14 02:26:27;;;;;;;9.80;6.32;;;;;;;22.10;67.85;100745.97;5004514;28;20067;-75
2022/08/14 02:29:07;;;;;;;6.55;5.55;;;;;;;22.13;67.33;100745.69;5026877;28;20059;-75
2022/08/14 02:31:39;;;;;;;6.70;5.93;;;;;;;22.13;67.68;100740.31;4989584;28;20063;-74
2022/08/14 02:34:30;;;;;;;7.10;5.50;;;;;;;22.15;67.45;100740.13;4993379;28;20054;-75
2022/08/14 02:37:08;;;;;;;9.38;5.65;;;;;;;22.14;67.71;100728.56;5012699;28;20463;-75
2022/08/14 02:39:42;;;;;;;8.52;6.18;;;;;;;22.14;67.95;100733.94;5010719;28;20423;-75
2022/08/14 02:42:13;;;;;;;6.05;5.50;;;;;;;22.14;68.32;100727.75;5001014;28;20046;-75
2022/08/14 02:44:42;;;;;;;8.98;5.70;;;;;;;22.14;67.94;100733.94;5005839;28;20060;-75
2022/08/14 02:47:16;;;;;;;6.20;5.68;;;;;;;22.16;68.04;100733.81;4996764;28;20086;-75
2022/08/14 02:49:47;;;;;;;7.65;5.68;;;;;;;22.16;68.37;100729.28;4994258;28;20060;-74
2022/08/14 02:52:24;;;;;;;6.95;5.88;;;;;;;22.16;68.33;100717.72;5030327;28;20045;-74
2022/08/14 02:55:11;;;;;;;7.25;5.50;;;;;;;22.14;68.38;100720.53;5002964;28;20059;-75
2022/08/14 02:57:50;;;;;;;6.97;6.18;;;;;;;22.15;68.73;100716.00;5000146;28;20500;-75
2022/08/14 03:00:31;;;;;;;7.68;6.07;;;;;;;22.14;68.25;100720.53;4994809;28;20053;-75
2022/08/14 03:03:01;;;;;;;6.80;6.10;;;;;;;22.13;68.38;100707.31;5028844;28;20057;-75
2022/08/14 03:05:35;;;;;;;8.98;5.78;;;;;;;22.12;68.72;100708.31;5013696;28;20076;-73
2022/08/14 03:08:11;;;;;;;8.63;6.45;;;;;;;22.11;68.56;100707.44;5028348;28;20521;-75
2022/08/14 03:10:45;;;;;;;6.97;5.90;;;;;;;22.11;69.03;100710.13;4983041;28;20145;-75
2022/08/14 03:13:17;;;;;;;6.88;5.95;;;;;;;22.10;69.38;100704.91;5003352;28;20068;-72
2022/08/14 03:15:52;;;;;;;7.57;5.70;;;;;;;22.08;69.06;100705.06;4993543;28;20516;-75
2022/08/14 03:18:26;;;;;;;7.30;5.85;;;;;;;22.09;69.28;100708.59;4996030;28;20045;-74
2022/08/14 03:21:00;;;;;;;8.50;6.32;;;;;;;22.08;69.06;100712.28;5004189;28;20078;-73
2022/08/14 03:23:34;;;;;;;11.63;6.38;;;;;;;22.08;68.79;100710.44;4978313;28;20053;-73
2022/08/14 03:26:10;;;;;;;9.32;6.35;;;;;;;22.09;69.22;100712.13;4997187;28;20061;-74
2022/08/14 03:28:49;;;;;;;8.63;6.75;;;;;;;22.08;68.79;100702.41;5005886;28;20045;-75
2022/08/14 03:31:22;;;;;;;6.57;5.90;;;;;;;22.09;68.88;100703.22;4981656;28;20397;-75
2022/08/14 03:33:52;;;;;;;15.55;7.03;;;;;;;22.07;69.60;100713.28;5007473;28;20492;-76
2022/08/14 03:36:21;;;;;;;6.90;6.18;;;;;;;22.04;69.07;100711.78;5021397;28;20496;-75
2022/08/14 03:39:21;;;;;;;7.53;6.20;;;;;;;22.03;70.07;100706.56;4992930;28;20413;-60
2022/08/14 03:41:53;;;;;;;7.75;6.70;;;;;;;22.02;69.73;100705.75;5013044;28;20053;-60
2022/08/14 03:44:21;;;;;;;10.48;6.25;;;;;;;22.00;70.01;100703.22;5011469;28;20525;-58
2022/08/14 03:47:08;;;;;;;8.77;6.30;;;;;;;22.01;69.90;100706.72;5016960;28;20424;-60
2022/08/14 03:49:39;;;;;;;8.60;7.57;;;;;;;21.99;70.16;100704.22;5023440;28;20057;-61
2022/08/14 03:52:09;;;;;;;10.20;7.40;;;;;;;21.99;69.84;100714.09;5030284;22;20053;-79
2022/08/14 03:54:57;;;;;;;13.85;7.25;;;;;;;21.99;70.77;100711.41;5007359;28;20083;-80
2022/08/14 03:57:31;;;;;;;13.95;7.07;;;;;;;21.98;70.06;100717.78;5026071;28;20088;-79
2022/08/14 04:00:02;;;;;;;10.10;6.82;;;;;;;21.98;69.86;100709.75;5012304;28;20059;-78
2022/08/14 04:02:29;;;;;;;13.48;6.68;;;;;;;21.98;70.00;100702.53;5021710;28;20045;-78
2022/08/14 04:05:13;;;;;;;12.40;7.07;;;;;;;21.98;70.54;100691.81;5003102;28;20045;-79
2022/08/14 04:07:43;;;;;;;7.80;6.65;;;;;;;21.96;70.48;100684.94;5003118;28;20148;-79
2022/08/14 04:10:30;;;;;;;9.27;6.78;;;;;;;21.96;70.42;100684.94;5011074;28;20065;-79
2022/08/14 04:13:04;;;;;;;7.63;6.82;;;;;;;21.94;70.10;100690.47;4998289;28;20132;-80
2022/08/14 04:15:33;;;;;;;9.93;7.18;;;;;;;21.94;70.40;100681.59;5022461;28;20049;-79
2022/08/14 04:18:20;;;;;;;7.82;7.13;;;;;;;21.92;70.45;100672.84;5026202;28;20045;-78
2022/08/14 04:20:47;;;;;;;8.93;6.53;;;;;;;21.92;70.54;100679.03;5020663;28;20136;-78
2022/08/14 04:23:21;;;;;;;9.10;6.60;;;;;;;21.95;70.52;100692.13;4987557;28;20128;-79
2022/08/14 04:25:53;;;;;;;9.15;6.45;;;;;;;21.96;70.09;100687.59;5005456;28;20048;-80
2022/08/14 04:28:21;;;;;;;10.68;7.00;;;;;;;21.97;70.20;100681.25;4985622;28;20072;-80
2022/08/14 04:31:08;;;;;;;7.75;6.95;;;;;;;22.00;70.12;100688.97;5017496;28;20121;-79
2022/08/14 04:33:37;;;;;;;8.13;6.15;;;;;;;22.02;69.80;100689.66;5007041;28;20045;-80
2022/08/14 04:36:05;;;;;;;8.48;6.50;;;;;;;22.05;70.12;100686.63;5014332;28;20151;-80
2022/08/14 04:44:09;;;;;;;7.57;6.63;;;;;;;22.14;69.80;100684.84;5019737;28;20132;-78
2022/08/14 04:49:41;;;;;;;9.10;6.70;;;;;;;22.20;69.78;100687.72;5005998;28;20136;-79
2022/08/14 04:52:24;;;;;;;6.97;6.32;;;;;;;22.27;69.52;100684.38;5030627;28;20107;-77
2022/08/14 04:54:52;;;;;;;9.52;6.95;;;;;;;22.28;69.66;100683.38;5014495;28;20057;-81
2022/08/14 04:57:21;;;;;;;7.68;6.97;;;;;;;22.27;70.15;100674.47;4991966;28;20041;-79
2022/08/14 04:59:51;;;;;;;10.55;7.65;;;;;;;22.32;70.02;100684.72;5007245;28;20067;-80
2022/08/14 05:02:23;;;;;;;8.05;6.78;;;;;;;22.34;69.91;100683.56;5007633;28;20109;-79
2022/08/14 05:04:51;;;;;;;7.53;6.78;;;;;;;22.39;69.78;100686.56;5016676;28;20053;-82
2022/08/14 05:07:24;;;;;;;8.30;7.35;;;;;;;22.46;69.56;100684.06;5012174;28;20050;-79
2022/08/14 05:10:12;;;;;;;8.63;7.00;;;;;;;22.52;69.35;100680.72;5010881;28;20083;-79
2022/08/14 05:12:48;;;;;;;10.43;7.45;;;;;;;22.59;69.50;100673.66;4999665;28;20051;-79
2022/08/14 05:15:36;;;;;;;10.98;7.60;;;;;;;22.64;69.07;100674.00;4999714;28;20055;-80
2022/08/14 05:18:11;;;;;;;8.68;6.85;;;;;;;22.71;68.90;100671.50;5023560;28;20053;-80
2022/08/14 05:20:47;;;;;;;7.32;6.63;;;;;;;22.77;68.46;100672.66;5009278;28;20113;-79
2022/08/14 05:23:36;;;;;;;9.40;7.20;;;;;;;22.85;67.77;100670.00;5022286;28;20045;-79
2022/08/14 05:26:16;;;;;;;12.10;7.10;;;;;;;22.92;67.56;100671.00;5007161;28;20049;-77
2022/08/14 05:28:44;;;;;;;10.73;7.00;;;;;;;23.03;67.22;100669.84;4995715;28;20463;-77
2022/08/14 05:31:16;;;;;;;8.23;6.93;;;;;;;23.12;66.98;100666.97;4988448;28;20056;-78
2022/08/14 05:33:48;;;;;;;8.43;6.93;;;;;;;23.27;66.34;100664.41;5003914;28;20094;-78
2022/08/14 05:36:24;;;;;;;7.85;6.53;;;;;;;23.40;65.84;100658.50;4975401;28;20049;-79
2022/08/14 05:38:53;;;;;;;9.30;7.10;;;;;;;23.52;65.71;100658.97;4984382;28;20075;-80
2022/08/14 05:41:21;;;;;;;8.98;6.63;;;;;;;23.56;65.22;100645.00;5013121;28;20431;-79
2022/08/14 05:43:49;;;;;;;8.95;6.70;;;;;;;23.61;64.84;100639.94;5035426;28;20131;-79
2022/08/14 05:46:42;;;;;;;9.00;7.22;;;;;;;23.63;64.90;100637.06;5020093;28;20050;-79
2022/08/14 05:49:13;;;;;;;9.18;8.20;;;;;;;23.65;65.04;100641.31;5018903;28;21068;-78
2022/08/14 05:51:40;;;;;;;9.02;7.28;;;;;;;23.77;64.59;100646.28;4994078;28;20065;-79
2022/08/14 05:54:08;;;;;;;7.60;6.90;;;;;;;23.80;64.87;100645.94;5007232;28;20496;-79
2022/08/14 05:56:53;;;;;;;9.52;7.15;;;;;;;23.92;64.19;100650.75;4995034;28;20067;-80
2022/08/14 05:59:21;;;;;;;8.90;6.78;;;;;;;24.04;63.90;100656.53;5013413;28;20041;-79
2022/08/14 06:02:08;;;;;;;8.13;7.10;;;;;;;24.17;63.34;100650.56;5038399;28;20107;-79
2022/08/14 06:04:38;;;;;;;8.63;6.55;;;;;;;24.21;63.11;100651.91;5040053;28;20053;-79
2022/08/14 06:07:05;;;;;;;7.43;6.68;;;;;;;24.28;63.04;100646.66;5040932;28;20064;-79
2022/08/14 06:09:32;;;;;;;12.43;6.88;;;;;;;24.34;62.63;100652.16;5039092;28;20050;-79
2022/08/14 06:12:08;;;;;;;10.23;7.55;;;;;;;24.40;62.45;100651.44;5002408;28;20120;-79
2022/08/14 06:14:36;;;;;;;7.65;6.95;;;;;;;24.52;62.15;100645.66;4990289;28;20108;-79
2022/08/14 06:17:05;;;;;;;10.20;7.72;;;;;;;24.59;61.46;100652.84;5018367;28;20057;-79
2022/08/14 06:19:32;;;;;;;7.88;6.97;;;;;;;24.66;61.33;100650.25;4999588;28;20053;-79
2022/08/14 06:21:59;;;;;;;8.52;7.72;;;;;;;24.74;61.01;100644.78;5020125;28;20510;-79
2022/08/14 06:24:28;;;;;;;7.88;7.13;;;;;;;24.81;60.79;100632.28;5021049;28;20145;-77
2022/08/14 06:27:02;;;;;;;8.57;7.20;;;;;;;24.86;60.74;100637.94;5025826;28;20053;-80
2022/08/14 06:29:33;;;;;;;8.57;7.65;;;;;;;24.86;60.42;100634.44;4994754;28;20081;-80
2022/08/14 06:32:02;;;;;;;7.78;6.97;;;;;;;24.81;60.56;100628.72;5017379;28;20045;-80
2022/08/14 06:34:49;;;;;;;9.15;6.60;;;;;;;24.91;60.14;100629.31;4987283;28;20049;-80
2022/08/14 06:37:45;;;;;;;8.07;7.28;;;;;;;24.98;59.77;100627.56;5014284;28;20541;-79
2022/08/14 06:40:17;;;;;;;8.32;7.38;;;;;;;25.05;59.63;100625.81;5005170;28;20076;-78
2022/08/14 06:42:58;;;;;;;8.00;6.90;;;;;;;25.14;59.24;100622.03;5022487;28;20064;-80
2022/08/14 06:45:32;;;;;;;8.80;7.10;;;;;;;25.14;59.19;100621.19;4996001;28;20053;-78
2022/08/14 06:48:00;;;;;;;9.75;7.68;;;;;;;25.16;58.98;100625.38;5010567;28;20054;-79
2022/08/14 06:50:28;;;;;;;10.80;7.60;;;;;;;25.23;58.71;100638.94;5002942;28;20049;-79
2022/08/14 06:52:57;;;;;;;9.95;7.20;;;;;;;25.28;58.19;100628.44;5008238;28;20462;-79
2022/08/14 06:55:24;;;;;;;7.05;6.30;;;;;;;25.39;58.51;100632.50;5000215;28;20069;-79
2022/08/14 06:57:55;;;;;;;8.45;7.60;;;;;;;25.49;57.64;100625.84;5001844;28;20058;-79
2022/08/14 07:00:26;;;;;;;9.05;6.70;;;;;;;25.59;57.49;100628.22;5007909;28;20041;-79
2022/08/14 07:05:48;;;;;;;8.48;6.70;;;;;;;25.75;56.52;100622.59;5017283;28;20041;-77
2022/08/14 07:08:27;;;;;;;7.45;6.47;;;;;;;25.83;56.57;100615.47;4995251;28;20108;-78
2022/08/14 07:10:59;;;;;;;8.85;7.05;;;;;;;25.97;56.66;100607.31;5031613;28;20067;-78
2022/08/14 07:13:27;;;;;;;7.82;6.20;;;;;;;26.09;56.15;100606.84;5007606;28;20051;-79
2022/08/14 07:15:57;;;;;;;8.52;6.05;;;;;;;26.14;55.52;100607.91;5002508;28;20055;-79
2022/08/14 07:18:30;;;;;;;8.30;7.00;;;;;;;26.21;55.49;100611.53;5018908;28;21087;-78
2022/08/14 07:20:58;;;;;;;7.22;6.00;;;;;;;26.27;54.98;100608.06;5037228;28;20067;-79
2022/08/14 07:23:26;;;;;;;9.32;6.28;;;;;;;26.38;54.73;100609.38;5009731;28;20041;-79
2022/08/14 07:25:56;;;;;;;7.70;6.43;;;;;;;26.49;54.24;100606.22;4986394;28;20060;-79
2022/08/14 07:28:27;;;;;;;10.77;6.00;;;;;;;26.62;54.15;100612.75;4985345;28;20045;-79
2022/08/14 07:30:59;;;;;;;7.90;6.43;;;;;;;26.71;53.50;100609.72;4985805;28;20547;-79
2022/08/14 07:33:44;;;;;;;8.15;6.38;;;;;;;26.80;53.30;100610.41;5000596;28;20050;-78
2022/08/14 07:36:18;;;;;;;6.68;6.07;;;;;;;26.83;52.63;100604.59;5001334;28;20097;-79
2022/08/14 07:38:59;;;;;;;7.95;5.40;;;;;;;26.94;52.24;100593.25;5031913;28;20041;-78
2022/08/14 07:41:29;;;;;;;8.77;5.80;;;;;;;27.00;52.43;100599.72;4995792;28;20053;-78
2022/08/14 07:44:02;;;;;;;7.47;6.63;;;;;;;27.14;51.66;100600.66;5025854;28;20057;-79
2022/08/14 07:46:49;;;;;;;6.28;5.68;;;;;;;27.20;51.37;100591.78;5019982;28;20049;-79
2022/08/14 07:49:18;;;;;;;8.32;6.47;;;;;;;27.40;50.90;100594.56;5020407;28;20041;-79
2022/08/14 07:51:45;;;;;;;11.30;5.85;;;;;;;27.48;50.45;100586.28;5005396;28;20065;-79
2022/08/14 07:54:17;;;;;;;7.50;6.00;;;;;;;27.62;49.21;100585.28;5003311;28;20049;-79
2022/08/14 07:57:00;;;;;;;7.00;5.63;;;;;;;27.70;49.19;100589.69;5024943;28;20511;-79
2022/08/14 07:59:40;;;;;;;8.57;5.78;;;;;;;27.69;48.80;100585.28;5004755;28;20049;-80
2022/08/14 08:02:11;;;;;;;5.50;4.95;;;;;;;27.74;48.64;100583.69;5033892;28;20144;-79
2022/08/14 08:04:52;;;;;;;7.13;5.97;;;;;;;27.87;48.24;100580.16;5006864;28;20037;-80
2022/08/14 08:07:24;;;;;;;8.98;6.07;;;;;;;27.98;47.93;100581.47;5013785;28;20144;-76
2022/08/14 08:09:57;;;;;;;6.70;5.97;;;;;;;28.08;47.72;100581.88;5005333;28;20071;-77
2022/08/14 08:12:27;;;;;;;6.47;5.63;;;;;;;28.22;47.38;100585.44;5017373;28;20080;-77
2022/08/14 08:14:59;;;;;;;10.93;5.90;;;;;;;28.37;46.92;100582.56;5009189;28;20072;-79
2022/08/14 08:17:36;;;;;;;;;;;;;;;28.50;46.86;100582.56;5021242;28;20049;-78
2022/08/14 08:20:14;;;;;;;9.68;5.95;;;;;;;28.68;46.45;100579.22;5000562;28;20126;-79
2022/08/14 08:22:42;;;;;;;7.35;6.60;;;;;;;28.62;46.32;100574.66;5002201;28;20403;-78
2022/08/14 08:25:17;;;;;;;9.70;6.25;;;;;;;28.76;46.29;100566.28;4999316;28;20042;-77
2022/08/14 08:28:15;;;;;;;5.85;5.35;;;;;;;28.85;46.32;100574.19;5022291;28;20167;-79
2022/08/14 08:30:57;;;;;;;11.45;6.60;;;;;;;28.87;46.00;100569.41;4990945;28;20067;-78
2022/08/14 08:33:31;;;;;;;5.30;4.80;;;;;;;28.99;45.83;100573.16;5005958;28;20206;-78
2022/08/14 08:36:06;;;;;;;7.05;5.45;;;;;;;29.26;44.91;100571.19;5023477;28;20041;-78
2022/08/14 08:38:38;;;;;;;;;;;;;;;29.42;44.44;100570.72;5017927;28;20144;-78
2022/08/14 08:41:26;;;;;;;9.32;5.75;;;;;;;29.64;44.54;100567.72;4997055;28;20295;-78
2022/08/14 08:44:04;;;;;;;6.57;5.97;;;;;;;29.83;43.54;100572.19;4985400;28;20071;-79
2022/08/14 08:46:43;;;;;;;7.05;5.30;;;;;;;29.94;43.43;100570.66;5001371;28;20049;-79
2022/08/14 08:49:14;;;;;;;11.25;5.97;;;;;;;29.97;42.95;100556.66;5020606;28;20053;-78
2022/08/14 08:51:41;;;;;;;7.28;5.57;;;;;;;29.97;43.11;100560.19;5025063;28;20785;-79
2022/08/14 08:54:14;;;;;;;8.55;5.50;;;;;;;29.96;43.53;100546.84;4996356;28;20145;-78
2022/08/14 08:56:47;;;;;;;8.10;5.18;;;;;;;30.04;43.13;100549.31;4999231;28;20380;-79
2022/08/14 08:59:31;;;;;;;6.82;5.72;;;;;;;30.08;42.69;100545.09;4997822;28;20140;-78
2022/08/14 09:02:06;;;;;;;10.13;5.32;;;;;;;30.01;42.76;100547.84;5006409;28;20049;-78
2022/08/14 09:04:40;;;;;;;6.53;5.45;;;;;;;30.13;42.44;100547.16;5001630;28;20048;-78
2022/08/14 09:07:26;;;;;;;10.40;5.28;;;;;;;30.15;42.21;100545.91;5003723;28;20057;-77
2022/08/14 09:09:55;;;;;;;5.30;4.80;;;;;;;30.21;41.47;100541.47;5018799;28;20060;-78
2022/08/14 09:12:28;;;;;;;7.15;4.47;;;;;;;30.33;41.13;100542.41;5014741;28;20041;-79
2022/08/14 09:15:00;;;;;;;16.38;4.72;;;;;;;30.50;40.93;100538.09;5011406;28;20061;-78
2022/08/14 09:17:27;;;;;;;8.90;4.28;;;;;;;30.52;40.71;100529.69;5003597;28;20057;-78
2022/08/14 09:19:55;;;;;;;5.07;4.18;;;;;;;30.67;40.25;100524.75;4989008;28;20111;-80
2022/08/14 09:22:22;;;;;;;13.40;4.50;;;;;;;30.62;39.57;100524.59;5029419;28;20045;-78
2022/08/14 09:25:04;;;;;;;12.85;4.25;;;;;;;30.79;39.43;100521.31;4998270;28;20045;-78
2022/08/14 09:27:35;;;;;;;10.98;4.25;;;;;;;30.93;39.05;100514.66;5020055;28;20068;-78
2022/08/14 09:30:06;;;;;;;4.03;2.95;;;;;;;30.96;39.71;100520.47;5007104;28;20183;-78
2022/08/14 09:33:02;;;;;;;7.95;2.95;;;;;;;31.21;39.12;100505.97;4993624;28;20062;-78
2022/08/14 09:35:44;;;;;;;10.63;3.72;;;;;;;31.44;38.45;100519.72;5004715;28;20048;-77
2022/08/14 09:38:18;;;;;;;8.95;4.32;;;;;;;31.44;37.70;100503.38;5027359;22;20044;-59
2022/08/14 09:41:12;;;;;;;7.82;3.65;;;;;;;31.56;38.10;100506.13;4997387;28;20053;-59
2022/08/14 09:43:42;;;;;;;6.32;3.55;;;;;;;31.68;36.98;100501.56;5004683;28;20088;-58
2022/08/14 09:46:11;;;;;;;6.30;3.42;;;;;;;31.71;37.08;100503.00;5016790;28;20471;-60
2022/08/14 09:49:03;;;;;;;8.43;3.20;;;;;;;31.78;37.23;100499.09;4982833;28;20054;-59
2022/08/14 09:51:31;;;;;;;10.35;3.03;;;;;;;31.83;36.67;100501.16;4988284;28;20054;-56
2022/08/14 09:54:04;;;;;;;11.15;3.53;;;;;;;31.99;36.30;100502.38;4989305;28;20537;-58
2022/08/14 09:56:45;;;;;;;6.38;3.22;;;;;;;32.03;35.88;100491.84;4982946;28;20085;-57
2022/08/14 09:59:26;;;;;;;6.85;3.50;;;;;;;32.22;34.94;100494.22;4976667;28;20053;-55
2022/08/14 10:01:58;;;;;;;10.07;3.60;;;;;;;32.32;34.43;100487.34;4985757;28;20054;-59
2022/08/14 10:04:27;;;;;;;7.50;3.05;;;;;;;32.42;34.28;100488.47;4988385;28;20050;-58
2022/08/14 10:07:04;;;;;;;6.70;3.10;;;;;;;32.72;34.04;100488.28;4994261;28;20064;-60
2022/08/14 10:09:31;;;;;;;9.18;3.47;;;;;;;32.98;33.06;100483.41;5000030;28;20445;-58
2022/08/14 10:12:02;;;;;;;6.70;2.75;;;;;;;33.19;33.20;100479.22;4997470;28;20079;-56
2022/08/14 10:14:33;;;;;;;4.53;3.33;;;;;;;33.38;32.85;100477.09;4967945;28;20094;-57
2022/08/14 10:17:04;;;;;;;3.72;2.72;;;;;;;33.44;32.82;100478.88;4972016;28;20050;-59
2022/08/14 10:19:33;;;;;;;7.05;3.03;;;;;;;33.43;32.02;100477.19;4994081;28;20078;-60
2022/08/14 10:22:09;;;;;;;10.60;3.10;;;;;;;33.53;32.02;100466.50;4998528;28;20079;-59
2022/08/14 10:24:56;;;;;;;5.22;2.83;;;;;;;33.37;31.90;100468.09;4975372;28;20058;-58
2022/08/14 10:27:27;;;;;;;3.97;2.63;;;;;;;33.46;31.96;100463.94;4992872;28;20050;-57
2022/08/14 10:30:00;;;;;;;4.43;2.53;;;;;;;33.67;31.79;100456.09;4998422;28;20409;-59
2022/08/14 10:32:28;;;;;;;5.65;2.85;;;;;;;33.89;32.12;100464.38;4991753;28;20058;-59
2022/08/14 10:35:15;;;;;;;7.05;2.70;;;;;;;34.02;30.98;100458.59;4984589;28;20411;-60
2022/08/14 10:37:48;;;;;;;6.15;3.05;;;;;;;34.05;30.60;100451.81;4998788;28;20050;-59
2022/08/14 10:40:26;;;;;;;5.37;2.77;;;;;;;33.98;30.83;100450.06;4985517;28;20046;-59
2022/08/14 10:43:24;;;;;;;8.98;3.25;;;;;;;33.92;30.55;100442.03;4989997;28;20480;-56
2022/08/14 10:45:57;;;;;;;5.90;3.50;;;;;;;33.87;30.37;100431.84;4999406;28;20054;-59
2022/08/14 10:48:59;;;;;;;5.65;2.72;;;;;;;33.79;30.88;100431.44;4995257;28;20061;-57
2022/08/14 10:51:28;;;;;;;4.57;2.90;;;;;;;33.79;30.92;100426.81;4995241;28;20062;-60
2022/08/14 10:54:09;;;;;;;4.57;3.05;;;;;;;33.89;31.28;100426.97;4993237;28;20399;-59
2022/08/14 10:57:11;;;;;;;5.82;3.70;;;;;;;33.93;30.71;100417.19;4996684;28;20137;-58
2022/08/14 10:59:49;;;;;;;7.45;3.38;;;;;;;33.98;30.70;100414.56;5006813;28;20065;-60
2022/08/14 11:02:21;;;;;;;7.75;3.05;;;;;;;33.99;30.29;100410.75;5011059;28;20056;-56
2022/08/14 11:05:11;;;;;;;9.23;3.03;;;;;;;33.97;30.26;100406.63;5000495;28;20050;-59
2022/08/14 11:07:49;;;;;;;8.73;3.15;;;;;;;33.99;30.17;100410.75;5002456;28;20055;-59
2022/08/14 11:10:38;;;;;;;3.92;3.20;;;;;;;34.10;30.32;100406.28;4977503;28;20046;-60
2022/08/14 11:13:14;;;;;;;6.25;2.80;;;;;;;34.14;30.18;100409.34;5000120;28;20056;-60
2022/08/14 11:15:42;;;;;;;4.43;2.92;;;;;;;34.11;30.25;100404.38;5002038;28;20057;-60
2022/08/14 11:18:10;;;;;;;5.28;3.30;;;;;;;34.15;30.06;100403.63;4978659;28;20054;-60
2022/08/14 11:20:53;;;;;;;9.30;3.63;;;;;;;34.18;29.69;100408.59;5004210;28;20146;-60
2022/08/14 11:23:27;;;;;;;8.70;3.45;;;;;;;34.20;30.28;100400.97;4989315;28;20060;-60
2022/08/14 11:26:05;;;;;;;5.80;3.08;;;;;;;34.27;29.98;100403.53;4981763;28;20125;-58
2022/08/14 11:28:37;;;;;;;7.75;2.75;;;;;;;34.33;29.75;100397.03;4989164;28;20414;-59
2022/08/14 11:31:24;;;;;;;5.10;3.00;;;;;;;34.32;29.14;100402.75;4998090;28;20050;-58
2022/08/14 11:33:54;;;;;;;4.82;3.00;;;;;;;34.36;28.97;100398.41;4983349;28;20126;-60
2022/08/14 11:36:27;;;;;;;5.57;2.88;;;;;;;34.51;29.09;100394.03;4990877;28;20053;-60
2022/08/14 11:39:23;;;;;;;6.05;3.25;;;;;;;34.68;28.49;100398.59;4998701;28;20418;-59
2022/08/14 11:42:04;;;;;;;4.28;2.80;;;;;;;34.78;28.16;100389.69;4995708;28;20439;-59
2022/08/14 11:44:52;;;;;;;5.97;3.35;;;;;;;34.95;28.19;100387.69;4981136;28;20070;-58
2022/08/14 11:47:26;;;;;;;7.57;3.33;;;;;;;35.02;27.12;100393.81;4987002;28;20049;-60
2022/08/14 11:50:11;;;;;;;4.47;3.22;;;;;;;35.14;26.83;100382.72;4988771;28;20414;-59
2022/08/14 11:52:39;;;;;;;12.00;3.45;;;;;;;35.11;27.24;100389.53;5002810;28;20470;-60
2022/08/14 11:55:10;;;;;;;5.95;3.28;;;;;;;35.22;27.65;100380.34;4998051;28;20058;-60
2022/08/14 11:57:39;;;;;;;4.90;3.30;;;;;;;35.41;28.38;100383.53;4989646;28;20419;-55
2022/08/14 12:00:14;;;;;;;3.45;2.58;;;;;;;35.61;27.42;100376.56;4979675;28;20548;-58
2022/08/14 12:02:54;;;;;;;9.07;3.20;;;;;;;35.68;26.98;100369.81;4998762;28;20058;-58
2022/08/14 12:05:37;;;;;;;8.13;3.78;;;;;;;35.87;27.06;100372.13;4981169;28;20437;-56
2022/08/14 12:08:06;;;;;;;5.25;3.88;;;;;;;36.07;27.28;100365.94;5001442;28;20054;-59
2022/08/14 12:10:41;;;;;;;5.10;3.15;;;;;;;36.23;26.62;100362.22;4998349;28;20060;-53
2022/08/14 12:13:12;;;;;;;4.03;3.38;;;;;;;36.35;26.21;100370.22;4990492;28;20396;-59
2022/08/14 12:15:44;;;;;;;;;;;;;;;36.42;25.94;100355.16;4975888;28;20058;-58